createdAt,value
2018-09-06T05:55:54.692Z,16.66
2018-09-06T05:59:19.441Z,16.66
2018-09-06T06:02:44.333Z,16.73
2018-09-06T06:06:10.264Z,16.72
2018-09-06T06:09:34.942Z,16.90
2018-09-06T06:13:01.072Z,16.90
2018-09-06T06:16:25.886Z,16.77
2018-09-06T06:19:50.753Z,17.05
2018-09-06T06:23:15.503Z,17.02
2018-09-06T06:26:40.795Z,17.03
2018-09-06T06:30:20.524Z,17.25
2018-09-06T06:33:48.035Z,17.36
2018-09-06T06:37:12.685Z,17.43
2018-09-06T06:40:38.676Z,17.49
2018-09-06T06:44:03.516Z,17.59
2018-09-06T06:47:29.054Z,17.69
2018-09-06T06:50:54.067Z,17.78
2018-09-06T06:54:20.116Z,17.86
2018-09-06T06:57:45.523Z,17.89
2018-09-06T07:01:10.440Z,17.88
2018-09-06T07:04:35.305Z,18.14
2018-09-06T07:07:59.995Z,18.23
2018-09-06T07:11:25.481Z,18.16
2018-09-06T07:14:50.822Z,18.37
2018-09-06T07:18:15.723Z,18.49
2018-09-06T07:21:40.671Z,18.58
2018-09-06T07:25:05.457Z,18.67
2018-09-06T07:28:30.293Z,18.87
2018-09-06T07:31:55.456Z,18.94
2018-09-06T07:35:20.300Z,19.09
2018-09-06T07:38:45.173Z,19.26
2018-09-06T07:42:10.278Z,19.43
2018-09-06T07:45:36.178Z,19.61
2018-09-06T07:49:01.099Z,19.77
2018-09-06T07:52:26.168Z,19.79
2018-09-06T07:56:10.477Z,19.88
2018-09-06T07:59:36.080Z,20.02
2018-09-06T08:03:00.849Z,20.08
2018-09-06T08:06:25.916Z,20.20
2018-09-06T08:09:50.576Z,20.29
2018-09-06T08:13:15.437Z,20.25
2018-09-06T08:16:41.514Z,20.40
2018-09-06T08:20:06.701Z,20.50
2018-09-06T08:23:34.067Z,20.50
2018-09-06T08:26:59.074Z,20.51
2018-09-06T08:30:27.030Z,20.58
2018-09-06T08:33:52.957Z,20.88
2018-09-06T08:37:17.763Z,20.93
2018-09-06T08:40:44.217Z,21.20
2018-09-06T08:44:09.354Z,21.33
2018-09-06T08:47:34.226Z,21.23
2018-09-06T08:50:59.112Z,21.01
2018-09-06T08:54:24.012Z,21.13
2018-09-06T08:57:48.888Z,21.04
2018-09-06T09:01:19.166Z,21.36
2018-09-06T09:04:44.040Z,21.40
2018-09-06T09:08:08.828Z,21.51
2018-09-06T09:11:33.631Z,21.36
2018-09-06T09:14:58.506Z,21.65
2018-09-06T09:18:23.340Z,21.79
2018-09-06T09:21:48.161Z,21.88
2018-09-06T09:25:12.902Z,21.63
2018-09-06T09:28:37.696Z,21.54
2018-09-06T09:32:02.577Z,21.50
2018-09-06T09:35:27.510Z,21.37
2018-09-06T09:38:52.233Z,21.48
2018-09-06T09:42:17.085Z,21.58
2018-09-06T09:45:41.761Z,21.58
2018-09-06T09:49:06.517Z,21.55
2018-09-06T09:52:31.207Z,21.66
2018-09-06T09:55:57.115Z,21.62
2018-09-06T09:59:21.863Z,21.70
2018-09-06T10:07:20.680Z,21.96
2018-09-06T10:10:45.423Z,22.07
2018-09-06T10:14:10.224Z,22.28
2018-09-06T10:17:35.044Z,22.32
2018-09-06T10:20:59.962Z,22.24
2018-09-06T10:24:24.764Z,22.40
2018-09-06T10:27:49.517Z,22.41
2018-09-06T10:31:14.448Z,22.65
2018-09-06T10:34:39.245Z,22.92
2018-09-06T10:38:04.144Z,23.25
2018-09-06T10:41:28.921Z,23.25
2018-09-06T10:44:53.741Z,23.11
2018-09-06T10:48:18.591Z,23.00
2018-09-06T10:51:43.287Z,23.06
2018-09-06T10:55:08.099Z,23.57
2018-09-06T10:58:32.886Z,23.59
2018-09-06T11:01:57.641Z,23.13
2018-09-06T11:05:22.405Z,23.17
2018-09-06T11:08:47.138Z,23.31
2018-09-06T11:12:11.862Z,23.07
2018-09-06T11:15:36.627Z,23.23
2018-09-06T11:19:02.131Z,23.09
2018-09-06T11:22:27.024Z,23.00
2018-09-06T11:25:51.535Z,22.85
2018-09-06T11:29:16.220Z,23.00
2018-09-06T11:32:41.109Z,22.57
2018-09-06T11:36:06.077Z,22.83
2018-09-06T11:39:30.954Z,22.91
2018-09-06T11:42:55.666Z,23.05
2018-09-06T11:46:20.402Z,22.52
2018-09-06T11:49:45.359Z,22.44
2018-09-06T11:53:10.619Z,22.57
2018-09-06T11:56:36.438Z,22.66
2018-09-06T12:00:02.492Z,23.04
2018-09-06T12:03:28.222Z,22.95
2018-09-06T12:06:53.124Z,22.93
2018-09-06T12:10:18.206Z,23.02
2018-09-06T12:13:43.964Z,23.16
2018-09-06T12:17:08.712Z,23.41
2018-09-06T12:20:33.409Z,23.86
2018-09-06T12:23:58.495Z,23.51
2018-09-06T12:27:23.356Z,23.71
2018-09-06T12:30:48.244Z,23.85
2018-09-06T12:34:13.155Z,23.70
2018-09-06T12:37:38.896Z,23.72
2018-09-06T12:41:03.682Z,23.80
2018-09-06T12:44:28.542Z,23.57
2018-09-06T12:47:53.472Z,23.84
2018-09-06T12:51:18.239Z,23.94
2018-09-06T13:02:41.935Z,23.63
2018-09-06T13:06:07.009Z,23.68
2018-09-06T13:09:31.815Z,23.52
2018-09-06T13:12:56.552Z,23.38
2018-09-06T13:16:21.316Z,23.58
2018-09-06T13:19:46.118Z,23.62
2018-09-06T13:23:10.980Z,23.67
2018-09-06T13:26:35.685Z,23.53
2018-09-06T13:30:00.367Z,23.44
2018-09-06T13:33:25.028Z,23.53
2018-09-06T13:36:49.727Z,23.75
2018-09-06T13:40:14.469Z,23.95
2018-09-06T13:43:39.133Z,23.68
2018-09-06T13:48:28.224Z,23.71
2018-09-06T13:51:52.894Z,24.06
2018-09-06T13:55:17.555Z,23.97
2018-09-06T13:58:43.410Z,24.11
2018-09-06T14:02:12.197Z,24.28
2018-09-06T14:05:38.388Z,24.20
2018-09-06T14:09:04.670Z,24.47
2018-09-06T14:12:30.424Z,24.52
2018-09-06T14:15:56.292Z,24.65
2018-09-06T14:19:21.933Z,24.29
2018-09-06T14:22:47.381Z,24.68
2018-09-06T14:26:16.119Z,24.39
2018-09-06T14:29:41.658Z,24.31
2018-09-06T14:33:09.933Z,25.02
2018-09-06T14:36:35.256Z,24.68
2018-09-06T14:40:02.165Z,24.40
2018-09-06T14:43:27.325Z,24.65
2018-09-06T14:46:52.537Z,24.36
2018-09-06T14:50:17.752Z,24.74
2018-09-06T14:53:42.793Z,24.73
2018-09-06T14:57:10.434Z,24.53
2018-09-06T15:00:35.753Z,24.60
2018-09-06T15:04:00.939Z,24.64
2018-09-06T15:07:26.237Z,24.78
2018-09-06T15:10:51.451Z,24.99
2018-09-06T15:14:16.676Z,24.83
2018-09-06T15:17:41.720Z,24.75
2018-09-06T15:21:06.972Z,24.78
2018-09-06T15:24:32.096Z,24.59
2018-09-06T15:27:57.368Z,24.83
2018-09-06T15:31:22.735Z,24.85
2018-09-06T15:34:48.097Z,25.12
2018-09-06T15:38:13.537Z,25.20
2018-09-06T15:41:39.095Z,25.29
2018-09-06T15:45:04.148Z,25.03
2018-09-06T15:48:28.877Z,25.34
2018-09-06T15:51:53.546Z,25.26
2018-09-06T15:55:18.283Z,25.59
2018-09-06T15:58:42.915Z,25.18
2018-09-06T16:02:07.660Z,25.28
2018-09-06T16:05:32.514Z,25.10
2018-09-06T16:08:57.233Z,25.01
2018-09-06T16:12:21.959Z,24.73
2018-09-06T16:15:46.609Z,24.63
2018-09-06T16:19:11.369Z,24.68
2018-09-06T16:22:36.117Z,24.35
2018-09-06T16:26:01.118Z,23.97
2018-09-06T16:29:25.870Z,24.00
2018-09-06T16:32:50.571Z,23.79
2018-09-06T16:36:15.338Z,23.82
2018-09-06T16:39:40.238Z,23.60
2018-09-06T16:43:07.013Z,23.53
2018-09-06T16:46:31.673Z,23.66
2018-09-06T16:49:56.579Z,23.57
2018-09-06T16:53:21.280Z,23.26
2018-09-06T16:56:46.234Z,23.12
2018-09-06T17:00:11.157Z,22.95
2018-09-06T17:03:35.870Z,23.01
2018-09-06T17:07:00.868Z,22.96
2018-09-06T17:10:25.593Z,22.99
2018-09-06T17:13:50.391Z,22.73
2018-09-06T17:17:16.441Z,22.80
2018-09-06T17:20:41.173Z,22.76
2018-09-06T17:24:05.919Z,22.71
2018-09-06T17:27:31.209Z,22.63
2018-09-06T17:30:56.196Z,22.52
2018-09-06T17:34:21.593Z,22.42
2018-09-06T17:37:47.003Z,22.49
2018-09-06T17:41:13.534Z,22.30
2018-09-06T17:46:02.736Z,22.46
2018-09-06T17:49:27.488Z,22.16
2018-09-06T17:52:52.228Z,22.05
2018-09-06T17:56:17.128Z,22.00
2018-09-06T17:59:42.326Z,22.01
2018-09-06T18:03:07.103Z,21.96
2018-09-06T18:06:32.128Z,21.83
2018-09-06T18:09:56.900Z,21.83
2018-09-06T18:13:21.687Z,21.88
2018-09-06T18:16:46.446Z,21.79
2018-09-06T18:20:11.926Z,21.75
2018-09-06T18:23:37.503Z,21.72
2018-09-06T18:27:02.377Z,21.76
2018-09-06T18:30:29.590Z,21.69
2018-09-06T18:33:56.080Z,21.74
2018-09-06T18:37:20.922Z,21.72
2018-09-06T18:40:45.853Z,21.66
2018-09-06T18:44:10.566Z,21.62
2018-09-06T18:47:36.343Z,21.59
2018-09-06T18:51:01.353Z,21.56
2018-09-06T18:54:26.236Z,21.49
2018-09-06T18:57:51.266Z,21.41
2018-09-06T19:01:16.098Z,21.37
2018-09-06T19:04:40.784Z,21.27
2018-09-06T19:08:05.802Z,21.24
2018-09-06T19:11:32.005Z,21.21
2018-09-06T19:14:57.540Z,21.04
2018-09-06T19:18:24.117Z,20.99
2018-09-06T19:21:49.101Z,21.08
2018-09-06T19:25:14.100Z,20.95
2018-09-06T19:28:39.407Z,20.88
2018-09-06T19:32:05.120Z,20.68
2018-09-06T19:35:30.892Z,20.50
2018-09-06T19:38:55.960Z,20.50
2018-09-06T19:42:21.800Z,20.08
2018-09-06T19:45:46.545Z,20.06
2018-09-06T19:49:11.371Z,20.14
2018-09-06T19:52:36.220Z,19.94
2018-09-06T19:56:00.958Z,19.93
2018-09-06T19:59:25.740Z,19.82
2018-09-06T20:02:50.503Z,20.01
2018-09-06T20:06:15.411Z,20.01
2018-09-06T20:09:40.237Z,19.82
2018-09-06T20:13:05.025Z,19.95
2018-09-06T20:16:29.928Z,19.96
2018-09-06T20:19:54.844Z,19.98
2018-09-06T20:23:19.663Z,20.05
2018-09-06T20:26:44.440Z,19.91
2018-09-06T20:30:09.203Z,19.81
2018-09-06T20:33:34.042Z,19.69
2018-09-06T20:36:58.736Z,19.55
2018-09-06T20:40:23.441Z,19.82
2018-09-06T20:47:20.752Z,19.61
2018-09-06T20:50:45.522Z,19.70
2018-09-06T20:54:10.337Z,19.37
2018-09-06T20:57:35.258Z,19.47
2018-09-06T21:00:59.956Z,19.38
2018-09-06T21:04:24.695Z,19.70
2018-09-06T21:07:49.400Z,19.80
2018-09-06T21:11:14.088Z,19.67
2018-09-06T21:14:38.869Z,19.69
2018-09-06T21:18:03.529Z,19.72
2018-09-06T21:21:28.194Z,19.87
2018-09-06T21:24:52.910Z,19.84
2018-09-06T21:28:17.611Z,19.72
2018-09-06T21:31:42.291Z,19.63
2018-09-06T21:35:07.042Z,19.74
2018-09-06T21:38:31.703Z,19.74
2018-09-06T21:41:56.466Z,19.76
2018-09-06T21:45:21.201Z,19.79
2018-09-06T21:48:45.887Z,19.62
2018-09-06T21:52:10.532Z,19.44
2018-09-06T21:55:35.354Z,19.47
2018-09-06T21:59:00.000Z,19.51
2018-09-06T22:02:30.009Z,19.49
2018-09-06T22:05:54.732Z,19.19
2018-09-06T22:09:19.516Z,19.12
2018-09-06T22:12:44.165Z,19.02
2018-09-06T22:16:08.856Z,19.25
2018-09-06T22:19:33.563Z,19.16
2018-09-06T22:22:58.224Z,19.32
2018-09-06T22:26:23.007Z,19.15
2018-09-06T22:29:47.606Z,19.28
2018-09-06T22:33:12.262Z,19.51
2018-09-06T22:36:37.790Z,19.44
2018-09-06T22:40:02.477Z,19.55
2018-09-06T22:43:27.114Z,19.47
2018-09-06T22:46:53.662Z,19.42
2018-09-06T22:50:18.582Z,19.37
2018-09-06T22:53:43.218Z,19.41
2018-09-06T22:57:07.933Z,19.43
2018-09-06T23:00:32.745Z,19.42
2018-09-06T23:03:57.386Z,19.33
2018-09-06T23:07:22.193Z,19.17
2018-09-06T23:10:46.841Z,19.25
2018-09-06T23:14:11.487Z,19.24
2018-09-06T23:17:36.147Z,19.25
2018-09-06T23:21:00.750Z,19.11
2018-09-06T23:24:25.387Z,19.24
2018-09-06T23:27:50.068Z,19.20
2018-09-06T23:31:14.733Z,19.15
2018-09-06T23:34:39.390Z,19.01
2018-09-06T23:38:04.016Z,19.03
2018-09-06T23:41:28.651Z,19.02
2018-09-06T23:52:52.925Z,18.73
2018-09-06T23:56:17.630Z,19.00
2018-09-06T23:59:42.249Z,18.90
